Time;durP1;ratioP1;P1;durP2;ratioP2;P2;SDS_P1;SDS_P2;PMS_P1;PMS_P2;Temp;Humidity;BMP_temperature;BMP_pressure;BME280_temperature;BME280_humidity;BME280_pressure;Samples;Min_cycle;Max_cycle;Signal;HPM_P1;HPM_P2
2023/05/28 00:01:32;;;;;;;9.98;5.18;;;;;;;;;;4993567;28;20105;-79
2023/05/28 00:03:59;;;;;;;10.32;4.82;;;;;;;;;;4994935;28;20553;-79
2023/05/28 00:06:26;;;;;;;8.55;4.82;;;;;;;;;;4962190;28;20150;-78
2023/05/28 00:08:53;;;;;;;8.98;5.78;;;;;;;;;;4977088;28;20093;-79
2023/05/28 00:11:21;;;;;;;10.85;5.95;;;;;;;;;;4977394;28;20153;-79
2023/05/28 00:13:48;;;;;;;13.02;6.32;;;;;;;;;;4977377;28;20042;-79
2023/05/28 00:16:14;;;;;;;11.63;5.78;;;;;;;;;;4977613;28;20066;-79
2023/05/28 00:18:41;;;;;;;8.88;5.65;;;;;;;;;;4961370;28;20073;-78
2023/05/28 00:21:08;;;;;;;6.93;4.68;;;;;;;;;;4975295;28;20058;-77
2023/05/28 00:23:35;;;;;;;8.27;5.45;;;;;;;;;;4977970;28;20050;-78
2023/05/28 00:26:02;;;;;;;10.88;5.45;;;;;;;;;;4979232;28;20096;-77
2023/05/28 00:28:29;;;;;;;11.88;5.43;;;;;;;;;;4971702;28;20053;-77
2023/05/28 00:30:56;;;;;;;9.35;5.90;;;;;;;;;;4981911;28;20112;-78
2023/05/28 00:33:22;;;;;;;8.82;5.18;;;;;;;;;;4998333;28;20576;-78
2023/05/28 00:35:54;;;;;;;9.20;5.20;;;;;;;;;;5014483;28;20085;-77
2023/05/28 00:38:22;;;;;;;6.90;4.78;;;;;;;;;;4984264;28;20065;-77
2023/05/28 00:40:49;;;;;;;10.70;5.20;;;;;;;;;;4982130;28;20053;-77
2023/05/28 00:43:16;;;;;;;8.38;5.53;;;;;;;;;;4982353;28;20490;-77
2023/05/28 00:45:43;;;;;;;13.10;5.63;;;;;;;;;;4981541;28;20054;-77
2023/05/28 00:48:10;;;;;;;9.02;4.90;;;;;;;;;;4982195;28;20140;-77
2023/05/28 00:50:38;;;;;;;9.60;5.75;;;;;;;;;;4982486;28;20046;-77
2023/05/28 00:53:05;;;;;;;8.82;4.95;;;;;;;;;;4999030;28;20085;-79
2023/05/28 00:55:31;;;;;;;11.23;5.70;;;;;;;;;;4983612;28;21808;-77
2023/05/28 00:58:05;;;;;;;9.45;5.50;;;;;;;;;;5001062;28;20054;-79
2023/05/28 01:00:33;;;;;;;7.10;4.78;;;;;;;;;;5003001;28;20510;-79
2023/05/28 01:03:00;;;;;;;10.85;5.55;;;;;;;;;;4984738;28;20045;-79
2023/05/28 01:05:27;;;;;;;7.97;5.65;;;;;;;;;;4983733;28;20137;-79
2023/05/28 01:07:54;;;;;;;10.55;5.45;;;;;;;;;;4983675;28;20137;-79
2023/05/28 01:10:21;;;;;;;10.35;5.30;;;;;;;;;;4983951;28;20050;-79
2023/05/28 01:12:47;;;;;;;10.02;5.30;;;;;;;;;;4984051;28;20085;-78
2023/05/28 01:15:14;;;;;;;10.25;5.68;;;;;;;;;;4980858;28;20077;-76
2023/05/28 01:17:41;;;;;;;8.90;5.32;;;;;;;;;;5013277;28;20065;-77
2023/05/28 01:20:10;;;;;;;10.63;5.18;;;;;;;;;;4980523;28;20050;-77
2023/05/28 01:22:38;;;;;;;10.88;5.30;;;;;;;;;;4996866;28;20108;-76
2023/05/28 01:25:09;;;;;;;10.90;5.57;;;;;;;;;;5028392;28;20584;-75
2023/05/28 01:27:39;;;;;;;8.68;5.82;;;;;;;;;;4996520;28;20060;-75
2023/05/28 01:30:09;;;;;;;11.55;5.50;;;;;;;;;;4996359;28;20046;-75
2023/05/28 01:32:38;;;;;;;8.35;5.70;;;;;;;;;;4980675;28;20154;-75
2023/05/28 01:35:06;;;;;;;8.70;5.65;;;;;;;;;;4979252;28;20057;-76
2023/05/28 01:37:35;;;;;;;9.80;6.15;;;;;;;;;;4979991;28;20061;-76
2023/05/28 01:40:04;;;;;;;10.63;6.18;;;;;;;;;;4979953;28;20046;-75
2023/05/28 01:42:32;;;;;;;10.52;5.70;;;;;;;;;;4996527;28;20096;-75
2023/05/28 01:44:59;;;;;;;8.93;5.22;;;;;;;;;;4979419;28;20050;-76
2023/05/28 01:47:25;;;;;;;7.85;4.70;;;;;;;;;;5028221;28;20473;-75
2023/05/28 01:49:52;;;;;;;10.57;5.65;;;;;;;;;;4979463;28;20049;-75
2023/05/28 01:52:19;;;;;;;13.23;5.93;;;;;;;;;;4979655;28;20132;-76
2023/05/28 01:54:46;;;;;;;7.53;5.57;;;;;;;;;;4969380;28;20419;-76
2023/05/28 01:57:14;;;;;;;9.18;5.78;;;;;;;;;;5010711;28;20052;-76
2023/05/28 01:59:41;;;;;;;10.43;6.10;;;;;;;;;;4978481;28;20050;-76
2023/05/28 02:02:08;;;;;;;9.10;6.10;;;;;;;;;;4988611;28;20055;-76
2023/05/28 02:04:35;;;;;;;9.13;5.45;;;;;;;;;;5000249;28;20064;-76
2023/05/28 02:07:02;;;;;;;10.90;6.00;;;;;;;;;;4968611;28;20050;-75
2023/05/28 02:09:29;;;;;;;10.93;5.75;;;;;;;;;;4991181;28;20051;-76
2023/05/28 02:11:56;;;;;;;7.32;5.68;;;;;;;;;;5003106;28;20058;-76
2023/05/28 02:14:23;;;;;;;10.02;6.22;;;;;;;;;;4985215;28;20046;-76
2023/05/28 02:16:52;;;;;;;11.35;5.72;;;;;;;;;;4994262;28;20104;-75
2023/05/28 02:19:19;;;;;;;11.55;6.13;;;;;;;;;;4979887;28;20046;-76
2023/05/28 02:21:46;;;;;;;9.10;5.68;;;;;;;;;;4979243;28;20469;-76
2023/05/28 02:24:13;;;;;;;10.73;5.90;;;;;;;;;;4986995;28;20051;-76
2023/05/28 02:26:40;;;;;;;11.77;5.90;;;;;;;;;;4958419;28;20054;-76
2023/05/28 02:29:06;;;;;;;8.52;6.18;;;;;;;;;;4978994;28;20498;-76
2023/05/28 02:31:33;;;;;;;11.65;6.68;;;;;;;;;;4978409;28;20083;-75
2023/05/28 02:34:00;;;;;;;14.40;6.70;;;;;;;;;;4978453;28;20054;-76
2023/05/28 02:36:27;;;;;;;9.45;5.95;;;;;;;;;;4978793;28;20053;-76
2023/05/28 02:38:54;;;;;;;11.77;6.30;;;;;;;;;;4978805;28;20046;-75
2023/05/28 02:41:21;;;;;;;11.63;6.13;;;;;;;;;;4994615;28;20141;-77
2023/05/28 02:43:48;;;;;;;9.70;6.35;;;;;;;;;;4977757;28;20050;-77
2023/05/28 02:46:14;;;;;;;10.57;6.07;;;;;;;;;;5003386;28;20058;-76
2023/05/28 02:48:41;;;;;;;10.68;5.80;;;;;;;;;;4994992;28;20054;-76
2023/05/28 02:51:08;;;;;;;10.43;6.05;;;;;;;;;;4978519;28;20056;-77
2023/05/28 02:53:35;;;;;;;12.02;6.15;;;;;;;;;;4978549;28;20053;-77
2023/05/28 02:56:02;;;;;;;11.27;5.70;;;;;;;;;;4978342;28;20698;-76
2023/05/28 02:58:30;;;;;;;11.52;6.03;;;;;;;;;;4982957;28;20096;-75
2023/05/28 03:00:57;;;;;;;11.30;5.93;;;;;;;;;;4955664;28;20414;-75
2023/05/28 03:03:24;;;;;;;11.38;5.68;;;;;;;;;;4971698;28;20054;-75
2023/05/28 03:05:51;;;;;;;13.15;5.75;;;;;;;;;;4955715;28;20568;-75
2023/05/28 03:08:19;;;;;;;12.10;6.20;;;;;;;;;;4971738;28;20055;-75
2023/05/28 03:10:46;;;;;;;11.85;5.82;;;;;;;;;;4939816;28;20046;-77
2023/05/28 03:13:12;;;;;;;9.57;5.68;;;;;;;;;;4955675;28;20070;-76
2023/05/28 03:15:39;;;;;;;13.05;5.88;;;;;;;;;;4955409;28;20058;-76
2023/05/28 03:18:06;;;;;;;9.27;5.65;;;;;;;;;;4987577;28;20109;-77
2023/05/28 03:20:33;;;;;;;14.10;6.78;;;;;;;;;;4987220;28;20054;-76
2023/05/28 03:23:00;;;;;;;7.75;5.60;;;;;;;;;;4971686;28;20050;-76
2023/05/28 03:25:27;;;;;;;12.48;5.90;;;;;;;;;;5014616;28;20085;-77
2023/05/28 03:27:54;;;;;;;10.95;5.90;;;;;;;;;;4994127;28;20104;-76
2023/05/28 03:30:21;;;;;;;11.30;6.18;;;;;;;;;;4977625;28;20502;-76
2023/05/28 03:32:49;;;;;;;12.40;5.32;;;;;;;;;;4994019;28;20099;-77
2023/05/28 03:35:16;;;;;;;9.75;5.70;;;;;;;;;;4962761;28;20062;-76
2023/05/28 03:37:43;;;;;;;9.77;6.05;;;;;;;;;;4987424;28;20059;-78
2023/05/28 03:40:10;;;;;;;11.35;5.70;;;;;;;;;;4971020;28;20499;-78
2023/05/28 03:42:38;;;;;;;10.80;6.25;;;;;;;;;;4986999;28;20046;-76
2023/05/28 03:45:06;;;;;;;8.55;6.18;;;;;;;;;;4974730;28;20058;-77
2023/05/28 03:47:33;;;;;;;7.65;5.30;;;;;;;;;;4958551;28;20085;-77
2023/05/28 03:50:00;;;;;;;11.57;6.22;;;;;;;;;;4974445;28;20049;-77
2023/05/28 03:52:27;;;;;;;9.70;6.18;;;;;;;;;;4975464;28;20054;-77
2023/05/28 03:54:54;;;;;;;10.55;5.45;;;;;;;;;;4976161;28;20506;-78
2023/05/28 03:57:21;;;;;;;11.70;6.15;;;;;;;;;;4976208;28;20858;-78
2023/05/28 03:59:48;;;;;;;9.50;5.38;;;;;;;;;;4979637;28;20142;-78
2023/05/28 04:02:14;;;;;;;11.18;5.50;;;;;;;;;;4979499;28;20057;-77
2023/05/28 04:04:41;;;;;;;13.00;5.78;;;;;;;;;;4978799;28;20097;-76
2023/05/28 04:07:08;;;;;;;11.02;6.38;;;;;;;;;;4978466;28;20081;-76
2023/05/28 04:09:35;;;;;;;9.68;5.88;;;;;;;;;;4978328;28;20109;-77
2023/05/28 04:12:06;;;;;;;11.10;6.05;;;;;;;;;;4994461;28;20629;-77
2023/05/28 04:14:33;;;;;;;10.82;6.50;;;;;;;;;;4994351;28;20581;-76
2023/05/28 04:16:59;;;;;;;12.48;5.90;;;;;;;;;;4978099;28;20100;-77
2023/05/28 04:19:26;;;;;;;12.57;6.25;;;;;;;;;;4978006;28;20050;-77
2023/05/28 04:21:53;;;;;;;11.65;5.90;;;;;;;;;;4977772;28;20145;-77
2023/05/28 04:24:20;;;;;;;11.63;5.93;;;;;;;;;;4977872;28;20055;-77
2023/05/28 04:26:47;;;;;;;10.00;5.78;;;;;;;;;;4978175;28;20104;-78
2023/05/28 04:29:15;;;;;;;8.63;5.15;;;;;;;;;;4978198;28;20057;-77
2023/05/28 04:31:43;;;;;;;11.38;6.22;;;;;;;;;;4976485;28;20550;-77
2023/05/28 04:34:11;;;;;;;10.95;5.90;;;;;;;;;;4978232;28;20043;-77
2023/05/28 04:36:38;;;;;;;8.15;5.25;;;;;;;;;;4977931;28;20475;-79
2023/05/28 04:39:05;;;;;;;9.82;5.80;;;;;;;;;;4980969;28;20391;-80
2023/05/28 04:41:33;;;;;;;11.65;5.03;;;;;;;;;;4964724;28;20465;-81
2023/05/28 04:44:00;;;;;;;11.60;5.88;;;;;;;;;;4960031;28;20051;-79
2023/05/28 04:46:29;;;;;;;8.73;5.35;;;;;;;;;;4966343;28;20065;-81
2023/05/28 04:48:57;;;;;;;7.90;5.30;;;;;;;;;;4984498;28;20050;-81
2023/05/28 04:51:24;;;;;;;9.73;5.38;;;;;;;;;;4963367;28;20052;-81
2023/05/28 04:53:51;;;;;;;8.60;5.43;;;;;;;;;;4996151;28;20465;-78
2023/05/28 04:56:18;;;;;;;8.07;6.38;;;;;;;;;;4990566;28;20057;-80
2023/05/28 04:58:46;;;;;;;11.55;5.65;;;;;;;;;;4998473;28;20332;-81
2023/05/28 05:01:14;;;;;;;9.77;5.25;;;;;;;;;;4984099;28;20073;-79
2023/05/28 05:03:42;;;;;;;7.03;4.95;;;;;;;;;;4983911;28;20056;-79
2023/05/28 05:06:10;;;;;;;9.18;5.45;;;;;;;;;;4966475;28;20105;-81
2023/05/28 05:08:37;;;;;;;9.65;5.10;;;;;;;;;;4978593;28;20108;-78
2023/05/28 05:11:06;;;;;;;10.38;5.47;;;;;;;;;;4978761;28;20050;-77
2023/05/28 05:13:33;;;;;;;9.45;5.28;;;;;;;;;;4979258;28;20061;-78
2023/05/28 05:16:00;;;;;;;9.73;5.03;;;;;;;;;;4962588;28;20415;-77
2023/05/28 05:18:27;;;;;;;10.50;5.43;;;;;;;;;;4986451;28;20070;-79
2023/05/28 05:20:55;;;;;;;10.10;5.78;;;;;;;;;;4998591;28;20050;-79
2023/05/28 05:23:22;;;;;;;12.80;5.32;;;;;;;;;;4971216;28;20050;-79
2023/05/28 05:25:48;;;;;;;10.15;4.90;;;;;;;;;;4978788;28;20050;-77
2023/05/28 05:28:15;;;;;;;9.43;5.30;;;;;;;;;;4983249;28;20052;-77
2023/05/28 05:30:42;;;;;;;8.82;5.53;;;;;;;;;;5013270;28;20422;-76
2023/05/28 05:33:09;;;;;;;8.95;5.07;;;;;;;;;;5029433;28;20450;-78
2023/05/28 05:35:36;;;;;;;10.85;4.78;;;;;;;;;;4975094;28;20146;-78
2023/05/28 05:38:03;;;;;;;9.63;4.53;;;;;;;;;;4989741;28;20046;-78
2023/05/28 05:40:30;;;;;;;8.00;5.63;;;;;;;;;;4975065;28;20051;-78
2023/05/28 05:42:56;;;;;;;8.55;5.38;;;;;;;;;;4975171;28;20145;-76
2023/05/28 05:45:23;;;;;;;12.32;5.13;;;;;;;;;;4977859;28;20495;-76
2023/05/28 05:47:50;;;;;;;10.20;5.20;;;;;;;;;;4979793;28;20745;-76
2023/05/28 05:50:17;;;;;;;11.77;5.25;;;;;;;;;;4995696;28;20056;-77
2023/05/28 05:52:43;;;;;;;10.10;5.18;;;;;;;;;;4980024;28;20485;-76
2023/05/28 05:55:10;;;;;;;10.20;5.18;;;;;;;;;;4979609;28;20054;-77
2023/05/28 05:57:37;;;;;;;8.75;4.78;;;;;;;;;;4972903;28;20507;-76
2023/05/28 06:00:06;;;;;;;9.00;4.93;;;;;;;;;;4972595;28;20093;-75
2023/05/28 06:02:33;;;;;;;8.57;5.10;;;;;;;;;;4941626;28;20128;-76
2023/05/28 06:05:00;;;;;;;8.75;5.20;;;;;;;;;;4956967;28;20137;-76
2023/05/28 06:07:27;;;;;;;12.35;5.38;;;;;;;;;;4990716;28;20514;-77
2023/05/28 06:09:54;;;;;;;8.07;5.15;;;;;;;;;;4993718;28;20141;-76
2023/05/28 06:12:21;;;;;;;10.10;5.10;;;;;;;;;;4979476;28;20065;-77
2023/05/28 06:14:49;;;;;;;8.73;4.18;;;;;;;;;;4979454;28;20108;-76
2023/05/28 06:17:15;;;;;;;9.68;5.03;;;;;;;;;;4979145;28;20085;-77
2023/05/28 06:19:42;;;;;;;9.70;4.32;;;;;;;;;;4995058;28;20050;-76
2023/05/28 06:22:10;;;;;;;8.25;4.35;;;;;;;;;;4978678;28;20057;-76
2023/05/28 06:24:39;;;;;;;9.40;4.75;;;;;;;;;;4979923;28;20056;-77
2023/05/28 06:27:06;;;;;;;9.35;3.70;;;;;;;;;;4995099;28;20054;-77
2023/05/28 06:29:32;;;;;;;9.30;4.45;;;;;;;;;;4994995;28;20097;-76
2023/05/28 06:31:59;;;;;;;7.05;4.30;;;;;;;;;;5011168;28;20046;-76
2023/05/28 06:34:26;;;;;;;9.57;3.88;;;;;;;;;;5011303;28;20458;-76
2023/05/28 06:36:53;;;;;;;9.90;3.97;;;;;;;;;;4994974;28;20521;-76
2023/05/28 06:39:20;;;;;;;6.90;3.45;;;;;;;;;;4978910;28;20107;-76
2023/05/28 06:41:46;;;;;;;9.38;3.92;;;;;;;;;;4978191;28;20050;-76
2023/05/28 06:44:13;;;;;;;8.90;3.90;;;;;;;;;;4995087;28;20091;-76
2023/05/28 06:46:40;;;;;;;6.40;3.80;;;;;;;;;;4994736;28;20115;-76
2023/05/28 06:49:07;;;;;;;8.05;3.92;;;;;;;;;;4978862;28;20058;-76
2023/05/28 06:51:35;;;;;;;6.93;3.60;;;;;;;;;;4992640;28;20100;-76
2023/05/28 06:54:02;;;;;;;7.93;3.50;;;;;;;;;;4973182;28;20088;-77
2023/05/28 06:56:29;;;;;;;8.98;4.13;;;;;;;;;;4967588;28;20077;-74
2023/05/28 06:58:56;;;;;;;8.52;4.25;;;;;;;;;;4975550;28;20108;-73
2023/05/28 07:01:22;;;;;;;8.30;3.78;;;;;;;;;;4960162;28;20051;-75
2023/05/28 07:03:49;;;;;;;7.32;4.03;;;;;;;;;;4974512;28;20487;-73
2023/05/28 07:06:16;;;;;;;8.82;4.32;;;;;;;;;;4973659;28;20058;-74
2023/05/28 07:08:44;;;;;;;7.82;4.50;;;;;;;;;;4972823;28;20078;-75
2023/05/28 07:11:12;;;;;;;9.35;4.05;;;;;;;;;;4970382;28;20062;-73
2023/05/28 07:13:39;;;;;;;7.25;3.40;;;;;;;;;;4957557;28;20074;-73
2023/05/28 07:16:06;;;;;;;6.20;3.15;;;;;;;;;;4973834;28;20054;-73
2023/05/28 07:18:33;;;;;;;6.25;3.53;;;;;;;;;;4993580;28;20129;-74
2023/05/28 07:21:00;;;;;;;7.60;3.80;;;;;;;;;;4989184;28;20050;-75
2023/05/28 07:23:28;;;;;;;9.80;3.58;;;;;;;;;;5005250;28;20046;-75
2023/05/28 07:25:55;;;;;;;6.43;3.80;;;;;;;;;;4957613;28;20054;-74
2023/05/28 07:28:22;;;;;;;8.18;3.65;;;;;;;;;;4989491;28;20069;-76
2023/05/28 07:30:48;;;;;;;7.50;3.28;;;;;;;;;;4957324;28;20073;-76
2023/05/28 07:33:15;;;;;;;8.65;3.85;;;;;;;;;;4973334;28;20050;-76
2023/05/28 07:35:42;;;;;;;7.50;3.97;;;;;;;;;;4957437;28;20443;-76
2023/05/28 07:38:11;;;;;;;4.93;3.38;;;;;;;;;;4989168;28;20077;-76
2023/05/28 07:40:38;;;;;;;7.85;3.60;;;;;;;;;;4973654;28;20109;-76
2023/05/28 07:43:05;;;;;;;11.52;4.28;;;;;;;;;;4973255;28;20050;-76
2023/05/28 07:45:32;;;;;;;8.75;4.43;;;;;;;;;;4988700;28;20526;-75
2023/05/28 07:47:58;;;;;;;6.93;3.33;;;;;;;;;;4973051;28;20054;-75
2023/05/28 07:50:26;;;;;;;11.20;4.40;;;;;;;;;;4956839;28;20046;-75
2023/05/28 07:52:52;;;;;;;9.00;4.55;;;;;;;;;;4951794;28;20163;-76
2023/05/28 07:55:19;;;;;;;7.90;3.65;;;;;;;;;;4972257;28;20113;-75
2023/05/28 07:57:46;;;;;;;9.43;4.10;;;;;;;;;;4956900;28;20050;-74
2023/05/28 08:00:15;;;;;;;7.40;3.53;;;;;;;;;;4956821;28;20092;-74
2023/05/28 08:02:43;;;;;;;7.78;3.90;;;;;;;;;;4989053;28;20117;-75
2023/05/28 08:05:14;;;;;;;9.20;4.50;;;;;;;;;;4957577;28;20125;-73
2023/05/28 08:07:40;;;;;;;8.45;3.72;;;;;;;;;;4997467;28;20130;-73
2023/05/28 08:10:08;;;;;;;10.50;4.45;;;;;;;;;;4994838;28;20047;-77
2023/05/28 08:12:35;;;;;;;7.10;3.53;;;;;;;;;;4957034;28;20104;-77
2023/05/28 08:15:02;;;;;;;9.52;4.15;;;;;;;;;;4994147;28;20082;-77
2023/05/28 08:17:32;;;;;;;10.25;4.00;;;;;;;;;;4956961;28;20074;-77
2023/05/28 08:19:59;;;;;;;9.65;3.63;;;;;;;;;;4957033;28;20403;-77
2023/05/28 08:22:28;;;;;;;8.95;3.88;;;;;;;;;;4957748;28;20435;-76
2023/05/28 08:24:55;;;;;;;9.93;3.75;;;;;;;;;;4973049;28;20128;-77
2023/05/28 08:27:22;;;;;;;10.98;3.65;;;;;;;;;;5005102;28;20108;-76
2023/05/28 08:29:49;;;;;;;10.27;4.10;;;;;;;;;;4972381;28;20058;-75
2023/05/28 08:32:16;;;;;;;10.27;3.38;;;;;;;;;;4956911;28;20069;-77
2023/05/28 08:34:43;;;;;;;6.43;3.78;;;;;;;;;;4979877;28;20112;-78
2023/05/28 08:37:12;;;;;;;6.60;3.50;;;;;;;;;;4975180;28;20054;-77
2023/05/28 08:39:39;;;;;;;8.07;3.97;;;;;;;;;;4975463;28;20051;-79
2023/05/28 08:42:07;;;;;;;11.88;4.00;;;;;;;;;;4974885;28;20054;-78
2023/05/28 08:44:34;;;;;;;7.65;3.65;;;;;;;;;;4977795;28;20054;-78
2023/05/28 08:47:01;;;;;;;9.90;4.18;;;;;;;;;;4983228;28;20092;-78
2023/05/28 08:49:32;;;;;;;8.60;3.58;;;;;;;;;;4980040;28;20073;-77
2023/05/28 08:52:02;;;;;;;8.32;3.97;;;;;;;;;;4997476;28;20046;-78
2023/05/28 08:54:29;;;;;;;9.27;4.70;;;;;;;;;;4996016;28;20077;-77
2023/05/28 08:56:57;;;;;;;8.55;3.63;;;;;;;;;;4978305;28;20053;-78
2023/05/28 08:59:25;;;;;;;7.45;4.03;;;;;;;;;;4994211;28;20150;-77
2023/05/28 09:01:52;;;;;;;8.80;4.50;;;;;;;;;;4994640;28;20050;-78
2023/05/28 09:04:19;;;;;;;9.20;3.38;;;;;;;;;;4993966;28;20058;-76
2023/05/28 09:06:52;;;;;;;8.55;4.28;;;;;;;;;;4993773;28;20066;-76
2023/05/28 09:09:20;;;;;;;9.32;4.00;;;;;;;;;;4993602;28;20057;-76
2023/05/28 09:11:47;;;;;;;9.30;5.15;;;;;;;;;;4977230;28;20089;-77
2023/05/28 09:14:18;;;;;;;8.15;4.25;;;;;;;;;;4993855;28;20135;-76
2023/05/28 09:16:45;;;;;;;11.15;4.68;;;;;;;;;;4977724;28;20125;-76
2023/05/28 09:19:15;;;;;;;10.70;3.95;;;;;;;;;;4994936;28;20129;-77
2023/05/28 09:21:53;;;;;;;8.73;4.20;;;;;;;;;;4993065;28;20100;-76
2023/05/28 09:24:20;;;;;;;10.30;3.85;;;;;;;;;;4977157;28;20054;-76
2023/05/28 09:26:48;;;;;;;7.45;3.80;;;;;;;;;;4977318;28;20046;-77
2023/05/28 09:29:15;;;;;;;6.20;3.83;;;;;;;;;;4973653;28;20043;-77
2023/05/28 09:31:42;;;;;;;7.40;3.47;;;;;;;;;;4957831;28;20047;-77
2023/05/28 09:34:10;;;;;;;8.93;3.97;;;;;;;;;;4962705;28;20082;-75
2023/05/28 09:36:37;;;;;;;9.38;4.25;;;;;;;;;;4979719;28;20046;-75
2023/05/28 09:39:08;;;;;;;5.38;3.45;;;;;;;;;;4957512;28;20058;-77
2023/05/28 09:41:36;;;;;;;13.73;8.20;;;;;;;;;;4979801;28;20572;-77
2023/05/28 09:44:05;;;;;;;8.85;4.85;;;;;;;;;;4961337;28;20105;-77
2023/05/28 09:46:33;;;;;;;30.50;10.00;;;;;;;;;;4995042;28;20050;-78
2023/05/28 09:49:01;;;;;;;9.63;5.30;;;;;;;;;;4996177;28;20053;-77
2023/05/28 09:51:32;;;;;;;10.00;3.80;;;;;;;;;;4996070;28;20391;-76
2023/05/28 09:54:01;;;;;;;22.63;13.15;;;;;;;;;;4961528;28;20483;-75
2023/05/28 09:56:33;;;;;;;10.93;4.57;;;;;;;;;;4996730;28;20077;-75
2023/05/28 09:59:03;;;;;;;21.27;8.93;;;;;;;;;;4996579;28;20476;-75
2023/05/28 10:01:36;;;;;;;8.90;3.95;;;;;;;;;;4985638;28;20058;-75
2023/05/28 10:04:08;;;;;;;10.20;5.68;;;;;;;;;;4992720;28;20562;-75
2023/05/28 10:06:37;;;;;;;11.47;4.40;;;;;;;;;;4976426;28;20050;-75
2023/05/28 10:09:05;;;;;;;14.23;6.82;;;;;;;;;;4990934;28;20805;-74
2023/05/28 10:11:40;;;;;;;9.90;5.68;;;;;;;;;;4990951;28;20063;-75
2023/05/28 10:14:07;;;;;;;9.68;6.15;;;;;;;;;;4975570;28;20120;-75
2023/05/28 10:16:34;;;;;;;12.00;5.68;;;;;;;;;;4991142;28;20100;-75
2023/05/28 10:19:02;;;;;;;6.80;3.60;;;;;;;;;;4975215;28;20061;-75
2023/05/28 10:21:29;;;;;;;13.15;6.43;;;;;;;;;;4991442;28;20046;-75
2023/05/28 10:23:57;;;;;;;6.00;3.42;;;;;;;;;;4991673;28;20054;-75
2023/05/28 10:26:24;;;;;;;7.55;3.95;;;;;;;;;;4993184;28;20046;-74
2023/05/28 10:28:55;;;;;;;8.02;3.83;;;;;;;;;;4975911;28;20526;-75
2023/05/28 10:31:25;;;;;;;5.82;3.65;;;;;;;;;;4991813;28;20086;-75
2023/05/28 10:33:52;;;;;;;7.05;3.17;;;;;;;;;;4991120;28;20553;-75
2023/05/28 10:36:19;;;;;;;9.30;3.55;;;;;;;;;;4991391;28;20279;-74
2023/05/28 10:39:00;;;;;;;7.85;3.45;;;;;;;;;;4980428;28;20081;-74
2023/05/28 10:41:32;;;;;;;9.50;3.97;;;;;;;;;;4995209;28;20100;-75
2023/05/28 10:44:05;;;;;;;7.20;3.50;;;;;;;;;;4994997;28;20092;-75
2023/05/28 10:46:37;;;;;;;6.65;3.08;;;;;;;;;;4978724;28;20046;-74
2023/05/28 10:49:10;;;;;;;8.30;3.77;;;;;;;;;;4983226;28;20042;-76
2023/05/28 10:51:45;;;;;;;8.65;3.08;;;;;;;;;;4983473;28;20094;-76
2023/05/28 10:54:29;;;;;;;7.60;3.65;;;;;;;;;;4970607;28;20114;-76
2023/05/28 10:57:21;;;;;;;9.27;3.38;;;;;;;;;;4981033;28;20867;-76
2023/05/28 11:00:06;;;;;;;5.50;3.10;;;;;;;;;;4975929;28;20076;-77
2023/05/28 11:02:34;;;;;;;10.63;3.60;;;;;;;;;;4978372;28;20058;-77
2023/05/28 11:05:02;;;;;;;7.88;3.70;;;;;;;;;;4999518;28;20069;-76
2023/05/28 11:07:39;;;;;;;5.80;3.10;;;;;;;;;;4994991;28;20491;-76
2023/05/28 11:10:15;;;;;;;6.93;3.60;;;;;;;;;;4978840;28;20061;-76
2023/05/28 11:12:43;;;;;;;6.32;3.17;;;;;;;;;;4980314;28;20505;-77
2023/05/28 11:15:12;;;;;;;8.20;3.67;;;;;;;;;;4994689;28;20096;-75
2023/05/28 11:17:43;;;;;;;8.02;3.63;;;;;;;;;;4978803;28;20058;-75
2023/05/28 11:20:27;;;;;;;5.30;2.70;;;;;;;;;;4954265;28;20112;-76
2023/05/28 11:22:55;;;;;;;9.82;3.80;;;;;;;;;;4949750;28;20109;-75
2023/05/28 11:25:22;;;;;;;6.60;3.53;;;;;;;;;;4971508;28;20055;-76
2023/05/28 11:27:50;;;;;;;6.78;3.00;;;;;;;;;;4989828;28;20047;-75
2023/05/28 11:30:18;;;;;;;7.15;3.25;;;;;;;;;;4988865;28;20069;-75
2023/05/28 11:32:46;;;;;;;6.68;3.45;;;;;;;;;;4993131;28;20046;-75
2023/05/28 11:35:14;;;;;;;6.72;2.90;;;;;;;;;;4998370;28;20041;-76
2023/05/28 11:37:45;;;;;;;6.50;3.00;;;;;;;;;;4996930;28;20053;-74
2023/05/28 11:40:14;;;;;;;6.97;2.97;;;;;;;;;;5001275;28;20056;-75
2023/05/28 11:42:45;;;;;;;6.50;3.50;;;;;;;;;;5016341;28;20054;-74
2023/05/28 11:45:12;;;;;;;10.23;3.83;;;;;;;;;;5016557;28;20057;-76
2023/05/28 11:47:39;;;;;;;8.05;3.58;;;;;;;;;;4995654;28;20054;-74
2023/05/28 11:50:12;;;;;;;6.35;3.70;;;;;;;;;;4980140;28;20405;-76
2023/05/28 11:52:39;;;;;;;5.28;3.35;;;;;;;;;;4956586;28;20495;-75
2023/05/28 11:55:07;;;;;;;7.95;3.38;;;;;;;;;;4955132;28;20059;-77
2023/05/28 11:57:34;;;;;;;6.68;2.97;;;;;;;;;;4975659;28;20046;-83
2023/05/28 12:00:15;;;;;;;7.38;3.95;;;;;;;;;;4955473;28;20488;-76
2023/05/28 12:02:46;;;;;;;5.53;3.20;;;;;;;;;;4974027;28;20403;-76
2023/05/28 12:05:14;;;;;;;5.60;3.30;;;;;;;;;;4989473;28;20057;-77
2023/05/28 12:07:45;;;;;;;3.70;2.60;;;;;;;;;;4955704;28;20054;-77
2023/05/28 12:10:16;;;;;;;6.55;3.30;;;;;;;;;;4986521;28;20046;-76
2023/05/28 12:12:52;;;;;;;7.10;3.35;;;;;;;;;;4965910;28;20045;-77
2023/05/28 12:15:24;;;;;;;5.13;3.20;;;;;;;;;;4989978;28;20054;-77
2023/05/28 12:17:56;;;;;;;5.82;2.60;;;;;;;;;;4975143;28;20045;-77
2023/05/28 12:20:23;;;;;;;6.25;3.30;;;;;;;;;;4977230;28;20681;-78
2023/05/28 12:23:11;;;;;;;7.90;3.65;;;;;;;;;;4985542;28;20050;-77
2023/05/28 12:25:44;;;;;;;7.18;2.67;;;;;;;;;;4995619;28;20069;-78
2023/05/28 12:28:12;;;;;;;4.75;3.22;;;;;;;;;;4995389;28;20146;-78
2023/05/28 12:30:41;;;;;;;6.10;2.90;;;;;;;;;;4996675;28;20507;-77
2023/05/28 12:33:09;;;;;;;7.03;3.60;;;;;;;;;;4972215;28;20089;-77
2023/05/28 12:35:36;;;;;;;6.80;3.85;;;;;;;;;;4978614;28;20089;-77
2023/05/28 12:38:03;;;;;;;6.38;3.42;;;;;;;;;;4967757;28;20042;-78
2023/05/28 12:40:30;;;;;;;5.82;3.35;;;;;;;;;;4962059;28;20714;-78
2023/05/28 12:42:57;;;;;;;6.72;3.35;;;;;;;;;;4998204;28;20070;-77
2023/05/28 12:45:25;;;;;;;6.32;3.38;;;;;;;;;;4994656;28;20073;-78
2023/05/28 12:47:52;;;;;;;6.50;3.28;;;;;;;;;;4973503;28;20050;-78
2023/05/28 12:50:20;;;;;;;4.75;3.00;;;;;;;;;;4984951;28;20456;-78
2023/05/28 12:52:47;;;;;;;6.97;3.42;;;;;;;;;;4962371;28;20057;-78
2023/05/28 12:55:14;;;;;;;6.15;3.20;;;;;;;;;;4958809;28;20042;-78
2023/05/28 12:57:43;;;;;;;5.00;3.30;;;;;;;;;;4983410;28;20046;-78
2023/05/28 13:00:11;;;;;;;4.10;2.80;;;;;;;;;;4965851;28;20065;-78
2023/05/28 13:02:38;;;;;;;6.07;3.28;;;;;;;;;;4962380;28;20438;-78
2023/05/28 13:05:06;;;;;;;4.72;3.05;;;;;;;;;;4997259;28;20101;-78
2023/05/28 13:07:33;;;;;;;5.82;2.78;;;;;;;;;;4962802;28;20421;-78
2023/05/28 13:10:00;;;;;;;5.45;3.35;;;;;;;;;;4983182;28;20091;-78
2023/05/28 13:12:27;;;;;;;4.68;2.95;;;;;;;;;;4975224;28;20069;-77
2023/05/28 13:14:54;;;;;;;5.70;3.45;;;;;;;;;;4981421;28;20062;-77
2023/05/28 13:17:21;;;;;;;6.40;3.88;;;;;;;;;;4980305;28;20397;-78
2023/05/28 13:19:47;;;;;;;4.85;2.95;;;;;;;;;;4961209;28;20050;-79
2023/05/28 13:22:14;;;;;;;6.22;3.42;;;;;;;;;;4963930;28;20047;-79
2023/05/28 13:24:41;;;;;;;7.78;3.67;;;;;;;;;;4981067;28;20058;-78
2023/05/28 13:27:13;;;;;;;5.68;3.03;;;;;;;;;;4993135;28;20046;-79
2023/05/28 13:29:40;;;;;;;5.72;3.15;;;;;;;;;;4962464;28;20133;-77
2023/05/28 13:32:08;;;;;;;5.50;3.03;;;;;;;;;;4980005;28;20046;-78
2023/05/28 13:34:35;;;;;;;5.30;2.97;;;;;;;;;;4988393;28;20053;-77
2023/05/28 13:37:02;;;;;;;6.70;3.03;;;;;;;;;;4980220;28;20111;-77
2023/05/28 13:39:29;;;;;;;5.05;3.13;;;;;;;;;;4980118;28;20058;-77
2023/05/28 13:41:56;;;;;;;7.25;3.60;;;;;;;;;;4978417;28;20128;-77
2023/05/28 13:44:24;;;;;;;5.43;3.15;;;;;;;;;;4996441;28;20108;-78
2023/05/28 13:46:51;;;;;;;5.25;3.83;;;;;;;;;;4980025;28;20054;-78
2023/05/28 13:49:18;;;;;;;6.97;3.05;;;;;;;;;;4991003;28;20078;-78
2023/05/28 13:51:46;;;;;;;5.38;3.05;;;;;;;;;;4970499;28;20050;-78
2023/05/28 13:54:12;;;;;;;7.55;3.10;;;;;;;;;;4972741;28;20080;-78
2023/05/28 13:56:41;;;;;;;4.38;2.95;;;;;;;;;;4976147;28;20065;-79
2023/05/28 13:59:08;;;;;;;5.50;2.90;;;;;;;;;;4982157;28;20049;-78
2023/05/28 14:01:36;;;;;;;5.53;3.42;;;;;;;;;;4973692;28;20050;-78
2023/05/28 14:04:03;;;;;;;4.65;3.15;;;;;;;;;;4973642;28;20494;-78
2023/05/28 14:06:32;;;;;;;5.05;3.35;;;;;;;;;;4976140;28;20065;-78
2023/05/28 14:08:59;;;;;;;4.38;3.03;;;;;;;;;;4976407;28;20415;-78
2023/05/28 14:11:26;;;;;;;8.30;4.07;;;;;;;;;;4958451;28;20500;-77
2023/05/28 14:14:11;;;;;;;5.30;3.10;;;;;;;;;;4952818;28;20125;-78
2023/05/28 14:16:38;;;;;;;7.22;3.35;;;;;;;;;;4952526;28;20054;-77
2023/05/28 14:19:05;;;;;;;6.43;3.33;;;;;;;;;;4992251;28;20418;-77
2023/05/28 14:21:32;;;;;;;6.63;2.90;;;;;;;;;;4976318;28;20050;-77
2023/05/28 14:23:59;;;;;;;4.45;3.42;;;;;;;;;;4992845;28;20495;-78
2023/05/28 14:26:26;;;;;;;6.05;3.17;;;;;;;;;;4976781;28;20154;-77
2023/05/28 14:28:53;;;;;;;6.25;3.17;;;;;;;;;;4992273;28;20101;-78
2023/05/28 14:31:20;;;;;;;6.53;3.83;;;;;;;;;;4992648;28;20054;-78
2023/05/28 14:33:47;;;;;;;6.80;3.83;;;;;;;;;;4960380;28;20054;-78
2023/05/28 14:36:14;;;;;;;7.35;3.33;;;;;;;;;;4960162;28;20054;-78
2023/05/28 14:38:42;;;;;;;5.03;3.03;;;;;;;;;;4992182;28;20061;-78
2023/05/28 14:41:09;;;;;;;4.50;3.45;;;;;;;;;;4991054;28;20046;-78
2023/05/28 14:43:36;;;;;;;5.63;3.42;;;;;;;;;;4992255;28;20096;-78